createdAt,value
2018-07-09T00:02:51.008Z,3.90
2018-07-09T00:07:41.928Z,3.73
2018-07-09T00:12:32.824Z,3.70
2018-07-09T00:17:23.717Z,3.33
2018-07-09T00:22:14.632Z,3.80
2018-07-09T00:27:05.516Z,3.90
2018-07-09T00:31:56.408Z,4.13
2018-07-09T00:36:47.290Z,4.10
2018-07-09T00:41:38.183Z,3.30
2018-07-09T00:46:29.828Z,3.90
2018-07-09T00:51:21.475Z,4.20
2018-07-09T00:56:12.403Z,3.97
2018-07-09T01:01:03.329Z,3.57
2018-07-09T01:05:54.265Z,3.70
2018-07-09T01:10:45.170Z,3.40
2018-07-09T01:15:36.090Z,3.03
2018-07-09T01:20:27.094Z,3.93
2018-07-09T01:25:18.725Z,4.13
2018-07-09T01:30:09.646Z,3.80
2018-07-09T01:35:00.570Z,3.80
2018-07-09T01:39:51.487Z,4.10
2018-07-09T01:44:42.406Z,4.17
2018-07-09T01:49:33.325Z,3.70
2018-07-09T01:54:24.242Z,3.70
2018-07-09T01:59:15.167Z,3.83
2018-07-09T02:04:06.073Z,3.70
2018-07-09T02:08:56.997Z,4.20
2018-07-09T02:13:47.911Z,3.77
2018-07-09T02:18:38.842Z,3.27
2018-07-09T02:23:29.750Z,3.90
2018-07-09T02:28:20.649Z,4.10
2018-07-09T02:33:12.306Z,4.00
2018-07-09T02:38:03.205Z,4.10
2018-07-09T02:42:54.846Z,3.63
2018-07-09T02:47:46.495Z,3.50
2018-07-09T02:52:37.409Z,4.40
2018-07-09T02:57:28.313Z,3.90
2018-07-09T03:02:19.970Z,4.00
2018-07-09T03:07:10.893Z,3.40
2018-07-09T03:12:01.806Z,4.17
2018-07-09T03:16:52.721Z,3.80
2018-07-09T03:21:43.643Z,4.10
2018-07-09T03:26:34.567Z,3.67
2018-07-09T03:31:25.486Z,3.60
2018-07-09T03:36:16.404Z,3.60
2018-07-09T03:41:07.308Z,3.90
2018-07-09T03:45:58.970Z,3.20
2018-07-09T03:50:49.882Z,3.67
2018-07-09T03:55:40.790Z,3.33
2018-07-09T04:00:31.706Z,3.73
2018-07-09T04:05:22.642Z,3.53
2018-07-09T04:10:13.557Z,4.07
2018-07-09T04:15:04.478Z,3.30
2018-07-09T04:19:55.388Z,3.50
2018-07-09T04:24:46.302Z,2.80
2018-07-09T04:29:37.250Z,3.23
2018-07-09T04:34:28.162Z,3.93
2018-07-09T04:39:19.069Z,3.00
2018-07-09T04:44:09.989Z,3.20
2018-07-09T04:49:00.896Z,3.03
2018-07-09T04:53:51.814Z,2.87
2018-07-09T04:58:42.731Z,2.90
2018-07-09T05:03:33.650Z,2.57
2018-07-09T05:08:24.621Z,2.77
2018-07-09T05:13:15.538Z,3.00
2018-07-09T05:18:06.456Z,2.47
2018-07-09T05:22:57.370Z,2.30
2018-07-09T05:27:48.284Z,2.60
2018-07-09T05:32:39.198Z,2.77
2018-07-09T05:37:30.113Z,3.00
2018-07-09T05:42:21.021Z,2.50
2018-07-09T05:47:11.938Z,2.63
2018-07-09T05:52:02.870Z,2.50
2018-07-09T05:56:53.799Z,2.50
2018-07-09T06:01:44.705Z,2.60
2018-07-09T06:06:35.646Z,3.90
2018-07-09T06:11:28.168Z,2.90
2018-07-09T06:16:19.812Z,2.70
2018-07-09T06:21:10.722Z,2.83
2018-07-09T06:26:01.642Z,2.10
2018-07-09T06:30:52.549Z,2.83
2018-07-09T06:35:43.466Z,2.27
2018-07-09T06:40:34.380Z,3.57
2018-07-09T06:45:25.294Z,2.30
2018-07-09T06:50:16.201Z,2.97
2018-07-09T06:55:07.866Z,2.83
2018-07-09T06:59:58.773Z,2.33
2018-07-09T07:04:49.687Z,2.20
2018-07-09T07:09:40.610Z,2.10
2018-07-09T07:14:31.541Z,2.30
2018-07-09T07:19:22.472Z,2.07
2018-07-09T07:24:13.396Z,2.00
2018-07-09T07:29:04.337Z,2.40
2018-07-09T07:33:55.250Z,2.10
2018-07-09T07:38:46.909Z,2.50
2018-07-09T07:43:38.559Z,2.50
2018-07-09T07:48:30.218Z,2.43
2018-07-09T07:53:21.193Z,2.50
2018-07-09T07:58:12.855Z,3.00
2018-07-09T08:03:03.808Z,2.70
2018-07-09T08:07:54.685Z,2.93
2018-07-09T08:13:27.175Z,2.87
2018-07-09T08:17:37.265Z,2.43
2018-07-09T08:22:28.219Z,2.20
2018-07-09T08:27:19.118Z,2.20
2018-07-09T08:32:10.035Z,2.00
2018-07-09T08:37:00.949Z,3.00
2018-07-09T08:41:51.878Z,2.27
2018-07-09T08:46:42.791Z,2.00
2018-07-09T08:51:33.702Z,2.70
2018-07-09T08:56:24.618Z,2.10
2018-07-09T09:01:15.532Z,2.60
2018-07-09T09:06:06.461Z,2.50
2018-07-09T09:10:57.380Z,1.70
2018-07-09T09:15:48.274Z,2.47
2018-07-09T09:20:39.199Z,1.80
2018-07-09T09:25:30.115Z,1.50
2018-07-09T09:30:21.014Z,1.60
2018-07-09T09:35:12.662Z,1.97
2018-07-09T09:40:03.557Z,1.60
2018-07-09T09:44:55.209Z,1.90
2018-07-09T09:49:46.119Z,1.50
2018-07-09T09:54:37.761Z,2.07
2018-07-09T09:59:28.705Z,1.97
2018-07-09T10:04:19.609Z,1.90
2018-07-09T10:09:10.743Z,2.00
2018-07-09T10:14:01.654Z,2.23
2018-07-09T10:18:52.586Z,2.03
2018-07-09T10:23:43.570Z,2.07
2018-07-09T10:28:35.247Z,2.10
2018-07-09T10:33:26.163Z,1.90
2018-07-09T10:38:17.073Z,2.87
2018-07-09T10:43:07.992Z,2.10
2018-07-09T10:47:58.905Z,2.27
2018-07-09T10:52:49.809Z,1.80
2018-07-09T10:57:40.717Z,2.00
2018-07-09T11:02:32.366Z,2.40
2018-07-09T11:07:23.281Z,2.07
2018-07-09T11:12:14.193Z,2.43
2018-07-09T11:17:05.857Z,2.50
2018-07-09T11:21:56.766Z,2.73
2018-07-09T11:26:47.678Z,2.47
2018-07-09T11:31:38.594Z,2.50
2018-07-09T11:36:29.587Z,2.70
2018-07-09T11:41:20.428Z,2.53
2018-07-09T11:46:11.336Z,2.67
2018-07-09T11:51:03.034Z,2.73
2018-07-09T11:55:53.945Z,2.90
2018-07-09T12:00:44.860Z,2.73
2018-07-09T12:05:35.787Z,2.60
2018-07-09T12:10:26.702Z,2.63
2018-07-09T12:15:17.610Z,2.40
2018-07-09T12:20:08.509Z,2.57
2018-07-09T12:24:59.418Z,2.50
2018-07-09T12:29:50.344Z,2.70
2018-07-09T12:34:41.245Z,3.40
2018-07-09T12:39:32.148Z,3.10
2018-07-09T12:44:23.816Z,3.30
2018-07-09T12:49:14.726Z,3.60
2018-07-09T12:54:05.633Z,3.40
2018-07-09T12:58:56.555Z,3.50
2018-07-09T13:03:47.482Z,3.33
2018-07-09T13:08:39.570Z,3.30
2018-07-09T13:13:30.485Z,3.60
2018-07-09T13:18:21.403Z,3.23
2018-07-09T13:23:12.332Z,3.30
2018-07-09T13:28:03.243Z,3.00
2018-07-09T13:32:54.163Z,3.03
2018-07-09T13:37:45.117Z,3.00
2018-07-09T13:42:35.997Z,2.80
2018-07-09T13:47:26.903Z,3.20
2018-07-09T13:52:17.861Z,2.27
2018-07-09T13:57:08.773Z,2.60
2018-07-09T14:01:59.677Z,2.20
2018-07-09T14:06:50.594Z,2.30
2018-07-09T14:11:41.505Z,2.50
2018-07-09T14:16:32.421Z,2.30
2018-07-09T14:21:23.357Z,2.37
2018-07-09T14:26:14.273Z,2.00
2018-07-09T14:31:05.177Z,2.47
2018-07-09T14:35:56.098Z,2.60
2018-07-09T14:40:47.041Z,3.07
2018-07-09T14:45:37.957Z,2.37
2018-07-09T14:50:28.877Z,2.67
2018-07-09T14:55:19.789Z,2.73
2018-07-09T15:00:10.709Z,2.27
2018-07-09T15:05:01.637Z,2.37
2018-07-09T15:09:52.553Z,2.73
2018-07-09T15:14:43.466Z,2.90
2018-07-09T15:19:34.390Z,2.80
2018-07-09T15:24:25.317Z,2.53
2018-07-09T15:29:16.225Z,2.50
2018-07-09T15:34:07.154Z,2.33
2018-07-09T15:38:58.823Z,2.50
2018-07-09T15:43:55.765Z,2.60
2018-07-09T15:48:46.687Z,2.33
2018-07-09T15:53:37.606Z,2.40
2018-07-09T15:58:28.535Z,2.13
2018-07-09T16:03:19.463Z,2.43
2018-07-09T16:08:10.382Z,2.30
2018-07-09T16:13:01.298Z,2.40
2018-07-09T16:17:52.218Z,2.30
2018-07-09T16:22:43.133Z,2.43
2018-07-09T16:27:34.050Z,2.60
2018-07-09T16:32:24.974Z,2.40
2018-07-09T16:37:15.873Z,2.27
2018-07-09T16:42:06.781Z,2.50
2018-07-09T16:46:58.432Z,2.70
2018-07-09T16:51:49.357Z,2.50
2018-07-09T16:56:40.261Z,2.50
2018-07-09T17:01:31.166Z,2.27
2018-07-09T17:06:22.813Z,2.13
2018-07-09T17:11:13.742Z,2.17
2018-07-09T17:16:04.942Z,2.67
2018-07-09T17:20:56.609Z,2.33
2018-07-09T17:25:47.518Z,1.70
2018-07-09T17:30:38.417Z,1.87
2018-07-09T17:35:30.078Z,2.10
2018-07-09T17:40:20.977Z,1.97
2018-07-09T17:45:12.681Z,2.30
2018-07-09T17:50:03.581Z,2.30
2018-07-09T17:54:54.493Z,1.87
2018-07-09T17:59:45.397Z,1.90
2018-07-09T18:04:36.360Z,1.80
2018-07-09T18:09:28.763Z,2.53
2018-07-09T18:14:19.677Z,1.70
2018-07-09T18:19:10.708Z,1.63
2018-07-09T18:24:01.662Z,1.63
2018-07-09T18:28:52.578Z,1.80
2018-07-09T18:33:43.522Z,1.70
2018-07-09T18:38:35.234Z,1.87
2018-07-09T18:43:26.110Z,2.27
2018-07-09T18:48:17.032Z,2.40
2018-07-09T18:53:07.946Z,1.40
2018-07-09T18:57:58.870Z,1.77
2018-07-09T19:02:49.793Z,1.50
2018-07-09T19:07:40.714Z,2.10
2018-07-09T19:12:31.738Z,1.53
2018-07-09T19:17:22.651Z,1.70
2018-07-09T19:22:13.552Z,1.60
2018-07-09T19:27:04.391Z,1.70
2018-07-09T19:31:55.265Z,1.00
2018-07-09T19:36:46.104Z,1.77
2018-07-09T19:41:38.914Z,2.03
2018-07-09T19:46:29.909Z,1.23
2018-07-09T19:51:20.746Z,1.50
2018-07-09T19:56:11.663Z,2.20
2018-07-09T20:01:02.496Z,1.37
2018-07-09T20:05:53.464Z,1.33
2018-07-09T20:11:05.406Z,1.53
2018-07-09T20:16:02.409Z,1.57
2018-07-09T20:20:54.017Z,1.73
2018-07-09T20:25:44.829Z,1.93
2018-07-09T20:30:35.794Z,2.10
2018-07-09T20:35:26.684Z,2.07
2018-07-09T20:40:18.277Z,1.40
2018-07-09T20:45:24.450Z,3.27
2018-07-09T20:50:21.647Z,4.50
2018-07-09T20:55:13.259Z,1.70
2018-07-09T21:00:04.101Z,1.77
2018-07-09T21:04:54.965Z,1.50
2018-07-09T21:09:45.832Z,1.43
2018-07-09T21:14:36.674Z,1.70
2018-07-09T21:19:27.517Z,1.47
2018-07-09T21:24:18.359Z,2.30
2018-07-09T21:29:09.203Z,1.53
2018-07-09T21:34:00.095Z,1.53
2018-07-09T21:38:51.653Z,1.33
2018-07-09T21:43:42.499Z,1.70
2018-07-09T21:48:34.105Z,1.47
2018-07-09T21:53:24.949Z,1.70
2018-07-09T21:58:15.790Z,2.00
2018-07-09T22:03:06.648Z,1.90
2018-07-09T22:07:57.481Z,1.50
2018-07-09T22:12:48.333Z,1.33
2018-07-09T22:17:39.936Z,1.67
2018-07-09T22:22:30.785Z,1.93
2018-07-09T22:27:22.379Z,2.17
2018-07-09T22:32:13.302Z,1.80
2018-07-09T22:37:05.055Z,1.50
2018-07-09T22:41:56.071Z,1.30
2018-07-09T22:46:47.714Z,1.27
2018-07-09T22:51:38.729Z,1.77
2018-07-09T22:56:29.629Z,1.50
2018-07-09T23:01:20.554Z,1.43
2018-07-09T23:06:11.466Z,1.20
2018-07-09T23:11:02.387Z,1.47
2018-07-09T23:15:53.313Z,1.90
2018-07-09T23:20:44.228Z,1.40
2018-07-09T23:25:35.062Z,1.50
2018-07-09T23:30:25.921Z,1.37
2018-07-09T23:35:16.774Z,1.53
2018-07-09T23:40:07.613Z,1.73
2018-07-09T23:44:58.446Z,1.47
2018-07-09T23:49:50.030Z,1.63
2018-07-09T23:54:40.889Z,2.13
